Time;durP1;ratioP1;P1;durP2;ratioP2;P2;SDS_P1;SDS_P2;PMS_P1;PMS_P2;Temp;Humidity;BMP_temperature;BMP_pressure;BME280_temperature;BME280_humidity;BME280_pressure;Samples;Min_cycle;Max_cycle;Signal;HPM_P1;HPM_P2
2022/10/16 05:58:46;;;;;;;15.05;6.15;;;18.90;91.30;;;;;;5108371;27;20829;-70
2022/10/16 06:01:23;;;;;;;7.70;5.68;;;18.90;91.60;;;;;;5083118;28;20020;-70
2022/10/16 06:04:06;;;;;;;13.77;5.20;;;19.00;91.50;;;;;;5081508;28;20017;-70
2022/10/16 06:06:33;;;;;;;10.50;4.32;;;19.10;91.40;;;;;;5083105;28;20039;-71
2022/10/16 06:09:03;;;;;;;9.75;5.07;;;19.20;91.20;;;;;;5080730;28;20035;-70
2022/10/16 06:11:32;;;;;;;8.07;4.93;;;19.30;91.00;;;;;;5099213;28;20028;-72
2022/10/16 06:14:02;;;;;;;8.70;4.63;;;19.30;90.90;;;;;;5081379;28;20035;-70
2022/10/16 06:16:30;;;;;;;15.18;7.85;;;19.40;90.60;;;;;;5083036;28;20402;-70
2022/10/16 06:18:57;;;;;;;27.85;21.38;;;19.50;90.40;;;;;;5082266;28;20020;-70
2022/10/16 06:21:27;;;;;;;26.50;16.58;;;19.50;90.40;;;;;;5083197;28;20012;-69
2022/10/16 06:23:57;;;;;;;16.38;12.10;;;19.60;90.30;;;;;;5081646;28;20433;-70
2022/10/16 06:26:26;;;;;;;12.23;8.65;;;19.60;90.20;;;;;;5081105;28;20021;-69
2022/10/16 06:28:55;;;;;;;12.02;8.57;;;19.60;89.90;;;;;;5083075;28;20035;-68
2022/10/16 06:31:22;;;;;;;13.15;7.55;;;19.60;89.60;;;;;;5079695;28;20424;-69
2022/10/16 06:33:51;;;;;;;10.93;5.85;;;19.70;89.30;;;;;;5080768;28;20467;-69
2022/10/16 06:36:19;;;;;;;9.27;5.38;;;19.70;88.90;;;;;;5081929;28;20202;-69
2022/10/16 06:38:45;;;;;;;15.65;9.45;;;19.70;88.90;;;;;;5082570;28;20036;-69
2022/10/16 06:41:18;;;;;;;15.00;9.52;;;19.80;88.80;;;;;;5084764;28;20497;-69
2022/10/16 06:43:45;;;;;;;8.43;7.38;;;19.90;88.70;;;;;;5078104;28;20028;-68
2022/10/16 06:46:13;;;;;;;9.40;6.10;;;19.90;88.50;;;;;;5083955;28;20021;-68
2022/10/16 06:48:40;;;;;;;13.15;5.68;;;19.90;88.20;;;;;;5078371;28;20063;-68
2022/10/16 06:51:10;;;;;;;8.63;6.55;;;20.00;88.00;;;;;;5082465;28;20360;-68
2022/10/16 06:53:39;;;;;;;11.20;5.70;;;20.00;87.50;;;;;;5081752;28;20021;-70
2022/10/16 06:56:13;;;;;;;10.43;5.28;;;20.10;87.10;;;;;;5080308;28;20471;-70
2022/10/16 06:58:40;;;;;;;16.02;6.60;;;20.00;86.60;;;;;;5082991;28;20112;-68
2022/10/16 07:01:07;;;;;;;9.48;5.15;;;20.10;86.50;;;;;;5083247;28;20798;-69
2022/10/16 07:03:35;;;;;;;6.93;5.20;;;20.10;86.30;;;;;;5083861;28;20099;-69
2022/10/16 07:06:04;;;;;;;7.80;5.72;;;20.10;86.20;;;;;;5081133;28;20024;-69
2022/10/16 07:08:35;;;;;;;8.48;5.88;;;20.20;86.30;;;;;;5079395;28;20056;-69
2022/10/16 07:11:04;;;;;;;6.38;4.45;;;20.20;86.10;;;;;;5069566;28;20176;-68
2022/10/16 07:13:33;;;;;;;11.57;6.00;;;20.30;86.00;;;;;;5069811;28;20031;-67
2022/10/16 07:16:18;;;;;;;7.95;4.88;;;20.30;85.70;;;;;;5067952;28;20081;-68
2022/10/16 07:19:25;;;;;;;9.02;5.25;;;20.40;85.30;;;;;;5067318;28;20079;-68
2022/10/16 07:22:31;;;;;;;11.38;4.43;;;20.40;85.20;;;;;;5069928;28;20024;-67
2022/10/16 07:24:57;;;;;;;31.08;22.92;;;20.60;85.00;;;;;;5068564;28;20024;-70
2022/10/16 07:27:24;;;;;;;19.08;14.57;;;20.60;84.70;;;;;;5067943;28;20032;-70
2022/10/16 07:29:50;;;;;;;12.95;9.55;;;20.70;84.50;;;;;;5067045;28;20016;-69
2022/10/16 07:32:17;;;;;;;9.05;6.72;;;20.70;84.30;;;;;;5066857;28;20103;-69
2022/10/16 07:34:43;;;;;;;11.25;7.45;;;20.80;83.50;;;;;;5065716;28;20425;-70
2022/10/16 07:37:09;;;;;;;14.27;7.63;;;20.80;83.20;;;;;;5067829;28;20383;-66
2022/10/16 07:39:36;;;;;;;7.22;4.70;;;20.90;83.40;;;;;;5068393;28;20513;-70
2022/10/16 07:42:02;;;;;;;17.70;7.47;;;21.00;83.10;;;;;;5067686;28;20017;-67
2022/10/16 07:44:29;;;;;;;5.38;4.03;;;21.00;82.60;;;;;;5068181;28;20024;-69
2022/10/16 07:46:55;;;;;;;7.10;4.35;;;21.10;81.70;;;;;;5069630;28;20110;-67
2022/10/16 07:49:22;;;;;;;6.80;4.97;;;21.20;81.60;;;;;;5068285;28;20021;-69
2022/10/16 07:51:48;;;;;;;8.25;4.50;;;21.30;81.30;;;;;;5069995;28;20547;-73
2022/10/16 07:54:15;;;;;;;9.48;5.05;;;21.40;81.10;;;;;;5067583;28;20386;-72
2022/10/16 07:56:41;;;;;;;7.47;4.68;;;21.50;81.10;;;;;;5067946;28;20063;-72
2022/10/16 07:59:08;;;;;;;13.25;5.72;;;21.70;81.60;;;;;;5066117;28;20017;-68
2022/10/16 08:01:34;;;;;;;7.03;5.18;;;21.90;80.60;;;;;;5067420;28;20027;-73
2022/10/16 08:04:01;;;;;;;13.43;5.38;;;22.10;79.80;;;;;;5069672;28;20016;-68
2022/10/16 08:06:27;;;;;;;14.70;4.85;;;22.30;79.90;;;;;;5065745;28;20027;-72
2022/10/16 08:08:54;;;;;;;6.43;5.35;;;22.50;79.70;;;;;;5069711;28;20024;-71
2022/10/16 08:11:21;;;;;;;17.05;10.30;;;22.60;79.40;;;;;;5066011;28;20016;-71
2022/10/16 08:13:47;;;;;;;20.48;15.38;;;22.60;78.20;;;;;;5068387;28;20025;-72
2022/10/16 08:16:14;;;;;;;33.35;18.20;;;22.60;78.60;;;;;;5065865;28;20024;-73
2022/10/16 08:18:41;;;;;;;32.88;18.83;;;22.60;78.60;;;;;;5069119;28;20509;-73
2022/10/16 08:21:13;;;;;;;20.67;11.18;;;22.70;78.70;;;;;;5066472;28;20074;-66
2022/10/16 08:23:39;;;;;;;11.55;7.15;;;22.80;78.30;;;;;;5067494;28;20108;-68
2022/10/16 08:26:26;;;;;;;13.75;6.60;;;22.80;78.60;;;;;;5066273;28;20040;-68
2022/10/16 08:28:52;;;;;;;47.08;38.45;;;22.70;78.80;;;;;;5065615;28;20032;-72
2022/10/16 08:31:19;;;;;;;31.95;26.55;;;22.70;78.70;;;;;;5068611;28;20082;-72
2022/10/16 08:33:46;;;;;;;18.38;14.60;;;22.80;78.80;;;;;;5062198;28;20052;-73
2022/10/16 08:36:14;;;;;;;14.23;8.55;;;22.80;79.00;;;;;;5067210;28;20023;-70
2022/10/16 08:38:40;;;;;;;10.38;6.95;;;22.80;79.30;;;;;;5066913;28;20078;-69
2022/10/16 08:41:36;;;;;;;12.80;5.20;;;22.90;79.40;;;;;;5067456;28;20021;-69
2022/10/16 08:44:39;;;;;;;4.82;4.00;;;23.00;79.20;;;;;;5025123;28;20054;-69
2022/10/16 08:47:24;;;;;;;5.78;4.05;;;23.20;78.50;;;;;;5064281;28;20470;-69
2022/10/16 08:50:15;;;;;;;7.40;3.80;;;23.30;77.00;;;;;;5062843;28;20374;-69
2022/10/16 08:52:44;;;;;;;4.00;3.60;;;23.30;75.70;;;;;;5061162;28;20036;-69
2022/10/16 08:55:51;;;;;;;8.45;3.97;;;23.50;74.70;;;;;;5066037;28;20479;-69
2022/10/16 08:58:26;;;;;;;4.63;3.97;;;23.60;73.00;;;;;;5061936;28;20576;-70
2022/10/16 09:01:04;;;;;;;4.82;4.32;;;23.70;72.30;;;;;;5066012;28;20489;-69
2022/10/16 09:03:58;;;;;;;6.07;4.40;;;23.80;71.70;;;;;;5064624;28;20021;-70
2022/10/16 09:06:46;;;;;;;4.93;4.28;;;23.90;71.00;;;;;;5064748;28;20025;-69
2022/10/16 09:09:18;;;;;;;6.22;5.10;;;24.00;70.70;;;;;;5061910;28;20029;-69
2022/10/16 09:12:07;;;;;;;5.78;4.18;;;24.10;69.90;;;;;;5065210;28;20027;-70
2022/10/16 09:14:46;;;;;;;18.75;9.73;;;24.20;69.50;;;;;;5066927;28;20085;-69
2022/10/16 09:17:26;;;;;;;169.77;148.20;;;24.20;68.80;;;;;;5063555;28;20497;-70
2022/10/16 09:20:16;;;;;;;54.63;47.10;;;24.20;68.60;;;;;;5063290;28;20016;-70
2022/10/16 09:22:42;;;;;;;32.85;21.13;;;24.20;68.20;;;;;;5063210;28;20529;-69
2022/10/16 09:25:17;;;;;;;15.25;12.13;;;24.20;68.20;;;;;;5064864;28;20094;-69
2022/10/16 09:27:51;;;;;;;10.90;8.20;;;24.20;68.20;;;;;;5065073;28;20024;-69
2022/10/16 09:30:20;;;;;;;11.23;6.93;;;24.30;69.10;;;;;;5064566;28;20046;-70
2022/10/16 09:32:52;;;;;;;7.15;6.45;;;24.30;68.80;;;;;;5063402;28;20017;-69
2022/10/16 09:35:22;;;;;;;7.38;5.13;;;24.30;69.20;;;;;;5065245;28;20028;-69
2022/10/16 09:38:28;;;;;;;13.27;9.00;;;24.30;68.40;;;;;;5065674;28;20090;-69
2022/10/16 09:40:56;;;;;;;;;;;24.40;69.00;;;;;;5065777;28;20438;-68
2022/10/16 09:43:30;;;;;;;7.25;5.97;;;24.50;69.70;;;;;;5080648;28;19919;-68
2022/10/16 09:46:03;;;;;;;9.73;5.90;;;24.60;71.70;;;;;;5064803;28;20017;-68
2022/10/16 09:48:38;;;;;;;18.88;16.73;;;24.70;71.00;;;;;;5066439;28;20033;-70
2022/10/16 09:51:16;;;;;;;11.75;8.75;;;24.90;70.50;;;;;;5063976;28;20021;-69
2022/10/16 09:53:47;;;;;;;15.75;5.75;;;24.90;70.40;;;;;;5064682;28;20029;-69
2022/10/16 09:56:24;;;;;;;8.65;5.45;;;25.00;70.10;;;;;;5065958;28;20110;-69
2022/10/16 09:58:56;;;;;;;7.32;4.53;;;25.10;69.90;;;;;;5067108;28;20032;-69
2022/10/16 12:17:38;;;;;;;10.48;5.75;;;26.30;58.50;;;;;;5118291;27;20370;-67
2022/10/16 12:20:14;;;;;;;9.77;5.22;;;26.00;58.90;;;;;;5100972;28;20108;-66
2022/10/16 12:23:02;;;;;;;8.85;5.75;;;26.00;59.20;;;;;;5103797;28;20024;-65
2022/10/16 12:25:28;;;;;;;11.40;6.05;;;26.10;58.80;;;;;;5104334;28;20446;-66
2022/10/16 12:28:05;;;;;;;20.48;13.05;;;26.10;58.10;;;;;;5105050;27;20028;-64
2022/10/16 12:30:38;;;;;;;19.00;11.23;;;26.10;58.00;;;;;;5103811;28;20023;-67
2022/10/16 12:33:16;;;;;;;13.50;7.88;;;26.20;58.10;;;;;;5103598;28;20071;-68
2022/10/16 12:35:46;;;;;;;8.77;4.88;;;26.30;57.50;;;;;;5101722;28;20023;-66
2022/10/16 12:38:19;;;;;;;10.43;5.57;;;26.50;57.20;;;;;;5101914;28;20030;-66
2022/10/16 12:40:56;;;;;;;8.98;5.65;;;26.70;56.50;;;;;;5107607;28;20509;-67
2022/10/16 12:43:28;;;;;;;14.70;6.43;;;26.80;55.70;;;;;;5104012;28;20547;-67
2022/10/16 12:46:08;;;;;;;20.05;9.95;;;27.00;54.90;;;;;;5102317;28;20035;-68
2022/10/16 12:48:35;;;;;;;27.88;18.58;;;27.10;55.00;;;;;;5109159;28;20067;-67
2022/10/16 12:51:23;;;;;;;15.93;7.50;;;27.20;55.10;;;;;;5103689;27;20047;-68
2022/10/16 12:54:23;;;;;;;19.23;9.77;;;27.30;55.40;;;;;;5101485;28;20036;-69
2022/10/16 12:57:04;;;;;;;10.38;5.38;;;27.20;55.20;;;;;;5096407;28;20039;-68
2022/10/16 13:00:22;;;;;;;27.63;17.80;;;27.10;55.70;;;;;;5102199;28;20028;-66
2022/10/16 13:02:57;;;;;;;14.88;9.10;;;27.10;55.50;;;;;;5075564;28;20840;-67
2022/10/16 13:06:02;;;;;;;17.58;9.65;;;27.10;55.60;;;;;;5103783;28;20474;-67
2022/10/16 13:08:40;;;;;;;20.88;18.48;;;27.10;55.40;;;;;;5056079;28;20484;-69
2022/10/16 13:11:41;;;;;;;18.70;14.70;;;27.20;55.20;;;;;;5056035;28;20020;-67
2022/10/16 13:14:17;;;;;;;19.98;12.15;;;27.30;55.40;;;;;;5091290;28;20135;-70
2022/10/16 13:17:08;;;;;;;11.52;7.85;;;27.40;54.30;;;;;;5095388;28;20717;-70
2022/10/16 13:19:51;;;;;;;26.15;11.82;;;27.40;53.40;;;;;;5088368;28;20712;-67
2022/10/16 13:22:39;;;;;;;19.98;15.25;;;27.40;53.70;;;;;;5090147;28;20032;-68
2022/10/16 13:25:24;;;;;;;22.73;9.90;;;27.30;54.60;;;;;;5088113;28;20048;-70
2022/10/16 13:28:06;;;;;;;11.20;6.43;;;27.20;55.40;;;;;;5087517;28;20423;-69
2022/10/16 13:30:42;;;;;;;9.55;5.28;;;27.20;55.90;;;;;;5090184;28;20028;-69
2022/10/16 13:33:17;;;;;;;7.25;5.43;;;27.10;56.10;;;;;;5085955;28;20674;-67
2022/10/16 13:35:55;;;;;;;9.82;6.28;;;27.10;56.40;;;;;;5085293;28;20067;-69
2022/10/16 13:38:27;;;;;;;14.90;6.85;;;27.10;56.40;;;;;;5088388;28;20509;-68
2022/10/16 13:41:01;;;;;;;23.17;12.90;;;27.10;56.30;;;;;;5088654;28;20031;-66
2022/10/16 13:43:35;;;;;;;10.87;8.00;;;27.20;56.40;;;;;;5090992;28;20043;-68
2022/10/16 13:46:04;;;;;;;9.30;6.23;;;27.10;56.50;;;;;;5086842;28;20059;-66
2022/10/16 13:48:32;;;;;;;10.70;5.57;;;27.20;56.50;;;;;;5091285;28;20566;-70
2022/10/16 13:51:07;;;;;;;6.75;4.00;;;27.20;55.80;;;;;;5086868;28;20038;-71
2022/10/16 13:53:35;;;;;;;4.47;4.07;;;27.20;54.50;;;;;;5089723;28;20074;-68
2022/10/16 13:56:16;;;;;;;6.15;3.72;;;27.30;52.70;;;;;;5088184;28;20024;-69
2022/10/16 13:58:44;;;;;;;6.18;3.40;;;27.30;51.80;;;;;;5085384;28;20119;-69
2022/10/16 14:01:24;;;;;;;4.25;3.53;;;27.30;50.80;;;;;;5087128;28;22803;-69
2022/10/16 14:03:52;;;;;;;4.07;3.08;;;27.30;50.80;;;;;;5083269;28;20031;-69
2022/10/16 14:06:24;;;;;;;6.35;4.20;;;27.30;50.70;;;;;;5086515;28;20036;-70
2022/10/16 14:09:01;;;;;;;3.60;3.13;;;27.30;50.50;;;;;;5087948;28;20624;-69
2022/10/16 14:11:28;;;;;;;7.95;4.15;;;27.30;50.20;;;;;;5088102;28;20189;-70
2022/10/16 14:13:56;;;;;;;5.63;4.30;;;27.20;50.00;;;;;;5087595;28;20779;-77
2022/10/16 14:16:29;;;;;;;5.38;4.88;;;27.20;50.40;;;;;;5085368;28;20181;-75
2022/10/16 14:19:00;;;;;;;49.03;41.17;;;27.10;51.70;;;;;;5084996;28;20622;-71
2022/10/16 14:21:27;;;;;;;20.73;17.05;;;27.10;53.00;;;;;;5085759;28;20493;-72
2022/10/16 14:23:54;;;;;;;13.70;10.30;;;27.10;53.70;;;;;;5088094;28;20748;-71
2022/10/16 14:26:24;;;;;;;8.98;7.07;;;27.10;54.00;;;;;;5089247;28;20031;-71
2022/10/16 14:29:31;;;;;;;9.63;6.22;;;27.00;53.90;;;;;;5083077;28;20059;-72
2022/10/16 14:32:03;;;;;;;9.43;5.82;;;27.00;54.00;;;;;;5077454;28;20040;-72
2022/10/16 14:34:33;;;;;;;8.68;4.60;;;27.00;54.20;;;;;;5090390;28;20039;-73
2022/10/16 14:37:17;;;;;;;5.82;5.10;;;26.90;54.40;;;;;;5086242;28;20020;-71
2022/10/16 14:39:48;;;;;;;8.13;5.53;;;26.90;54.60;;;;;;5086026;28;20028;-72
2022/10/16 14:42:19;;;;;;;23.63;19.13;;;26.80;54.70;;;;;;5085280;28;20024;-73
2022/10/16 14:44:47;;;;;;;15.93;9.98;;;26.80;54.90;;;;;;5085563;28;20084;-72
2022/10/16 14:47:24;;;;;;;11.25;7.80;;;26.80;55.30;;;;;;5087459;28;20027;-72
2022/10/16 14:49:52;;;;;;;6.43;5.82;;;26.80;55.40;;;;;;5089921;28;20090;-72
2022/10/16 14:52:19;;;;;;;10.70;5.38;;;26.80;55.20;;;;;;5087430;28;20470;-72
2022/10/16 14:54:50;;;;;;;10.68;6.03;;;26.80;55.10;;;;;;5088950;28;20039;-72
2022/10/16 14:57:23;;;;;;;6.95;4.88;;;26.80;55.00;;;;;;5086707;28;20028;-71
2022/10/16 14:59:53;;;;;;;7.38;5.70;;;26.80;54.80;;;;;;5087232;28;20030;-73
2022/10/16 15:02:31;;;;;;;10.38;6.43;;;26.80;54.60;;;;;;5089471;28;20025;-72
2022/10/16 15:04:58;;;;;;;8.60;6.22;;;26.80;54.30;;;;;;5087881;28;20103;-71
2022/10/16 15:07:25;;;;;;;11.23;5.40;;;26.70;54.10;;;;;;5091577;28;20024;-71
2022/10/16 15:09:52;;;;;;;9.60;6.22;;;26.70;54.20;;;;;;5091158;28;20478;-72
2022/10/16 15:12:19;;;;;;;14.00;7.75;;;26.70;54.10;;;;;;5088821;28;20060;-72
2022/10/16 15:14:45;;;;;;;9.25;6.05;;;26.70;54.20;;;;;;5088982;28;20028;-73
2022/10/16 15:17:12;;;;;;;7.28;6.25;;;26.70;54.20;;;;;;5092198;28;20036;-72
2022/10/16 15:19:38;;;;;;;14.40;6.22;;;26.60;54.00;;;;;;5091142;28;20024;-72
2022/10/16 15:22:05;;;;;;;9.45;5.90;;;26.60;54.10;;;;;;5089993;28;20080;-72
2022/10/16 15:24:31;;;;;;;12.13;6.80;;;26.60;54.10;;;;;;5089577;28;20030;-72
2022/10/16 15:27:07;;;;;;;34.22;7.30;;;26.50;54.40;;;;;;5089441;28;20020;-72
2022/10/16 15:29:33;;;;;;;16.55;5.78;;;26.50;55.00;;;;;;5087411;28;20040;-72
2022/10/16 15:32:00;;;;;;;13.10;7.07;;;26.50;55.50;;;;;;5088614;28;20124;-74
2022/10/16 15:34:26;;;;;;;8.60;6.03;;;26.40;55.60;;;;;;5089009;28;20035;-73
2022/10/16 15:36:55;;;;;;;20.30;7.50;;;26.40;55.90;;;;;;5088885;28;20299;-72
2022/10/16 15:39:21;;;;;;;14.45;7.22;;;26.40;56.40;;;;;;5090210;28;20035;-73
2022/10/16 15:41:53;;;;;;;11.25;5.65;;;26.30;56.80;;;;;;5090984;28;20020;-71
2022/10/16 15:44:21;;;;;;;9.48;5.90;;;26.30;56.50;;;;;;5088913;28;20470;-72
2022/10/16 15:46:47;;;;;;;13.77;6.22;;;26.30;57.10;;;;;;5093989;28;20478;-72
2022/10/16 15:49:14;;;;;;;12.15;6.07;;;26.20;57.10;;;;;;5088773;28;20486;-72
2022/10/16 15:51:42;;;;;;;6.03;5.28;;;26.10;56.60;;;;;;5089880;28;20076;-70
2022/10/16 15:54:09;;;;;;;9.23;6.18;;;26.00;56.60;;;;;;5089829;28;20032;-70
2022/10/16 15:56:36;;;;;;;9.93;5.65;;;25.90;56.70;;;;;;5087801;28;20052;-69
2022/10/16 15:59:03;;;;;;;26.92;7.30;;;25.90;56.60;;;;;;5089496;28;20669;-67
2022/10/16 16:02:09;;;;;;;9.27;5.05;;;25.90;56.80;;;;;;5090339;28;20047;-67
2022/10/16 16:05:15;;;;;;;8.20;5.35;;;25.80;57.00;;;;;;5088852;28;20022;-70
2022/10/16 16:08:21;;;;;;;9.00;5.00;;;25.80;56.90;;;;;;5094289;28;20107;-67
2022/10/16 16:11:12;;;;;;;12.25;6.85;;;25.70;57.30;;;;;;5089526;28;20096;-68
2022/10/16 16:13:39;;;;;;;12.30;6.00;;;25.60;58.20;;;;;;5087931;28;20501;-67
2022/10/16 16:16:11;;;;;;;13.75;6.70;;;25.60;58.60;;;;;;5087982;28;20123;-67
2022/10/16 16:18:38;;;;;;;15.82;6.80;;;25.50;58.70;;;;;;5090603;28;20024;-67
2022/10/16 16:21:05;;;;;;;12.85;5.88;;;25.50;58.30;;;;;;5088945;28;20023;-67
2022/10/16 16:23:32;;;;;;;8.13;5.15;;;25.40;58.10;;;;;;5091828;28;20028;-68
2022/10/16 16:26:12;;;;;;;8.90;6.05;;;25.40;58.00;;;;;;5087870;28;20028;-68
2022/10/16 16:28:39;;;;;;;10.88;5.60;;;25.30;57.90;;;;;;5090891;28;20111;-67
2022/10/16 16:31:27;;;;;;;9.35;4.93;;;25.30;57.90;;;;;;5090524;28;20028;-67
2022/10/16 16:33:54;;;;;;;8.88;4.97;;;25.20;58.00;;;;;;5092837;28;20090;-70
2022/10/16 16:36:21;;;;;;;6.80;4.47;;;25.20;58.20;;;;;;5089602;28;20073;-68
2022/10/16 16:38:47;;;;;;;7.15;4.60;;;25.20;58.20;;;;;;5087623;28;20379;-68
2022/10/16 16:41:21;;;;;;;8.50;5.97;;;25.20;58.60;;;;;;5091972;28;20036;-67
2022/10/16 16:43:48;;;;;;;18.60;6.72;;;25.10;58.90;;;;;;5090886;28;20024;-72
2022/10/16 16:46:15;;;;;;;11.52;6.00;;;25.10;59.50;;;;;;5088616;28;20032;-69
2022/10/16 16:48:42;;;;;;;9.05;6.18;;;25.10;59.90;;;;;;5089310;28;20700;-70
2022/10/16 16:51:19;;;;;;;10.43;5.75;;;25.10;60.20;;;;;;5088242;28;20051;-68
2022/10/16 16:53:50;;;;;;;7.90;5.15;;;25.00;60.40;;;;;;5092627;28;20478;-67
2022/10/16 16:56:17;;;;;;;6.07;5.43;;;25.00;60.60;;;;;;5092887;28;20019;-67
2022/10/16 16:58:48;;;;;;;8.88;4.90;;;25.00;60.80;;;;;;5097939;28;20028;-68
2022/10/16 17:01:15;;;;;;;16.17;5.43;;;25.00;60.90;;;;;;5088617;28;20441;-73
2022/10/16 17:03:44;;;;;;;12.60;5.07;;;25.00;61.00;;;;;;5091815;28;20386;-70
2022/10/16 17:06:14;;;;;;;9.48;4.82;;;25.00;61.40;;;;;;5092117;28;20095;-69
2022/10/16 17:08:41;;;;;;;11.20;6.88;;;24.90;62.10;;;;;;5089034;28;20720;-67
2022/10/16 17:11:13;;;;;;;6.72;5.75;;;24.90;62.20;;;;;;5095431;28;20024;-68
2022/10/16 17:13:39;;;;;;;7.25;6.25;;;24.90;62.50;;;;;;5092671;28;20472;-69
2022/10/16 17:16:07;;;;;;;14.02;6.22;;;24.80;62.50;;;;;;5092198;28;20093;-67
2022/10/16 17:18:34;;;;;;;20.35;7.70;;;24.80;62.70;;;;;;5091049;28;20428;-68
2022/10/16 17:21:03;;;;;;;7.57;5.95;;;24.70;62.90;;;;;;5098142;28;20024;-69
2022/10/16 17:23:29;;;;;;;7.07;5.43;;;24.70;63.30;;;;;;5091181;28;20058;-67
2022/10/16 17:25:56;;;;;;;9.23;5.75;;;24.70;63.70;;;;;;5092304;28;20054;-67
2022/10/16 17:28:22;;;;;;;8.32;5.45;;;24.70;64.00;;;;;;5094240;28;20382;-67
2022/10/16 17:30:49;;;;;;;6.18;4.72;;;24.60;64.20;;;;;;5094224;28;20020;-67
2022/10/16 17:33:15;;;;;;;12.65;6.35;;;24.70;64.40;;;;;;5095149;28;20020;-68
2022/10/16 17:35:44;;;;;;;10.93;5.88;;;24.60;64.40;;;;;;5091502;28;20100;-68
2022/10/16 17:38:12;;;;;;;12.13;6.03;;;24.60;64.70;;;;;;5091920;28;20031;-68
2022/10/16 17:40:40;;;;;;;10.30;5.32;;;24.60;65.00;;;;;;5091495;28;20099;-68
2022/10/16 17:43:07;;;;;;;10.27;5.90;;;24.60;65.20;;;;;;5092434;28;20097;-68
2022/10/16 17:45:37;;;;;;;7.15;5.90;;;24.60;65.30;;;;;;5090184;28;20036;-68
2022/10/16 17:48:04;;;;;;;10.77;6.35;;;24.60;65.40;;;;;;5090568;28;20035;-68
2022/10/16 17:50:31;;;;;;;9.73;6.65;;;24.60;65.60;;;;;;5093452;28;20087;-68
2022/10/16 17:52:57;;;;;;;11.52;7.45;;;24.50;65.70;;;;;;5091137;28;20016;-72
2022/10/16 17:55:24;;;;;;;11.63;7.55;;;24.50;65.70;;;;;;5090775;28;20167;-70
2022/10/16 17:57:52;;;;;;;13.00;8.00;;;24.50;65.80;;;;;;5091005;28;20577;-68
2022/10/16 18:00:19;;;;;;;13.07;9.32;;;24.50;65.90;;;;;;5093398;28;20103;-69
2022/10/16 18:02:47;;;;;;;11.77;7.82;;;24.50;66.00;;;;;;5092581;28;20035;-69
2022/10/16 18:05:14;;;;;;;15.48;8.57;;;24.50;66.30;;;;;;5089674;28;20567;-68
2022/10/16 18:07:40;;;;;;;12.45;8.77;;;24.50;66.60;;;;;;5093366;28;20031;-67
2022/10/16 18:10:08;;;;;;;10.18;6.80;;;24.40;66.70;;;;;;5091736;28;20390;-67
2022/10/16 18:12:35;;;;;;;13.15;8.05;;;24.40;66.90;;;;;;5096353;27;20047;-67
2022/10/16 18:15:01;;;;;;;13.00;8.48;;;24.40;67.00;;;;;;5089429;28;20024;-67
2022/10/16 18:17:28;;;;;;;12.80;8.55;;;24.40;67.30;;;;;;5090656;28;20055;-67
2022/10/16 18:19:55;;;;;;;12.75;8.25;;;24.50;67.50;;;;;;5094956;28;20032;-67
2022/10/16 18:22:22;;;;;;;11.38;7.90;;;24.40;67.70;;;;;;5090960;28;20038;-68
2022/10/16 18:24:49;;;;;;;12.50;8.93;;;24.40;68.00;;;;;;5090829;28;20020;-68
2022/10/16 18:27:15;;;;;;;15.63;9.88;;;24.40;68.10;;;;;;5088976;28;20395;-67
2022/10/16 18:29:41;;;;;;;11.55;8.02;;;24.40;68.20;;;;;;5093619;28;20030;-68
2022/10/16 18:32:08;;;;;;;16.80;9.48;;;24.40;68.50;;;;;;5090784;28;20466;-68
2022/10/16 18:34:36;;;;;;;14.82;8.13;;;24.40;68.70;;;;;;5091489;28;20020;-67
2022/10/16 18:37:02;;;;;;;14.00;9.10;;;24.40;68.80;;;;;;5090376;28;20028;-67
2022/10/16 18:39:29;;;;;;;15.50;9.23;;;24.40;68.90;;;;;;5094582;28;20012;-68
2022/10/16 18:41:58;;;;;;;16.02;8.80;;;24.40;69.00;;;;;;5090045;28;20016;-67
2022/10/16 18:44:26;;;;;;;15.57;8.82;;;24.40;69.00;;;;;;5089544;28;20024;-69
2022/10/16 18:46:55;;;;;;;12.77;7.97;;;24.40;69.10;;;;;;5091013;28;20123;-68
2022/10/16 18:49:25;;;;;;;21.08;12.82;;;24.30;69.10;;;;;;5090703;28;20490;-68
2022/10/16 18:51:55;;;;;;;17.15;9.60;;;24.30;69.30;;;;;;5091040;28;20023;-71
2022/10/16 18:54:23;;;;;;;14.77;9.18;;;24.30;69.30;;;;;;5089295;28;20028;-68
2022/10/16 18:56:51;;;;;;;14.85;8.60;;;24.30;69.40;;;;;;5086419;28;20501;-68
2022/10/16 18:59:18;;;;;;;18.13;8.82;;;24.30;69.40;;;;;;5086881;28;20062;-69
2022/10/16 19:01:47;;;;;;;12.15;7.97;;;24.30;69.60;;;;;;5086950;28;20454;-69
2022/10/16 19:04:22;;;;;;;14.07;7.50;;;24.30;69.70;;;;;;5088473;28;20023;-72
2022/10/16 19:06:52;;;;;;;12.88;6.50;;;24.30;69.60;;;;;;5087729;28;20043;-69
2022/10/16 19:09:27;;;;;;;13.52;6.90;;;24.30;69.50;;;;;;5091500;28;20077;-70
2022/10/16 19:11:53;;;;;;;13.02;6.13;;;24.30;69.50;;;;;;5086768;28;20039;-71
2022/10/16 19:14:20;;;;;;;12.50;7.22;;;24.30;69.60;;;;;;5086518;28;20031;-68
2022/10/16 19:16:47;;;;;;;9.98;6.50;;;24.30;69.60;;;;;;5087148;28;20036;-68
2022/10/16 19:19:17;;;;;;;14.70;7.90;;;24.30;69.70;;;;;;5087414;28;20028;-70
2022/10/16 19:21:44;;;;;;;11.38;7.18;;;24.30;70.10;;;;;;5089712;28;20024;-68
2022/10/16 19:24:14;;;;;;;10.70;7.65;;;24.30;70.10;;;;;;5087950;28;20104;-68
2022/10/16 19:26:41;;;;;;;14.07;7.25;;;24.30;70.10;;;;;;5087117;28;20039;-69
2022/10/16 19:29:08;;;;;;;23.55;7.05;;;24.30;70.40;;;;;;5086610;28;20026;-68
2022/10/16 19:31:35;;;;;;;10.25;8.43;;;24.20;70.90;;;;;;5088270;28;20116;-69
2022/10/16 19:34:05;;;;;;;21.92;9.25;;;24.20;70.20;;;;;;5087964;28;20138;-71
2022/10/16 19:36:37;;;;;;;14.38;7.35;;;24.20;70.60;;;;;;5087948;28;20486;-70
2022/10/16 19:39:24;;;;;;;10.35;6.15;;;24.20;71.10;;;;;;5089199;28;20031;-68
2022/10/16 19:41:51;;;;;;;15.65;7.07;;;24.20;71.60;;;;;;5087693;28;20024;-68
2022/10/16 19:44:18;;;;;;;19.23;7.15;;;24.10;71.90;;;;;;5087404;28;20020;-68
2022/10/16 19:46:47;;;;;;;17.42;7.38;;;24.10;71.60;;;;;;5086203;28;20097;-68
2022/10/16 19:49:17;;;;;;;16.33;7.13;;;24.10;71.20;;;;;;5087842;28;20027;-70
2022/10/16 19:51:50;;;;;;;15.10;6.10;;;24.10;71.00;;;;;;5087867;28;20024;-68
2022/10/16 19:54:17;;;;;;;19.05;7.13;;;24.10;70.90;;;;;;5085926;28;20017;-68
2022/10/16 19:56:44;;;;;;;13.40;7.03;;;24.00;70.60;;;;;;5087806;28;20020;-68
2022/10/16 19:59:12;;;;;;;16.85;7.50;;;24.00;70.40;;;;;;5085423;28;20490;-68
2022/10/16 20:01:39;;;;;;;18.98;8.05;;;24.00;70.20;;;;;;5087672;28;20028;-68
2022/10/16 20:04:06;;;;;;;28.23;7.97;;;23.90;70.00;;;;;;5086672;28;20085;-68
2022/10/16 20:06:32;;;;;;;18.55;8.05;;;23.90;69.90;;;;;;5087104;28;20035;-71
2022/10/16 20:08:59;;;;;;;22.85;9.50;;;23.90;69.80;;;;;;5088235;28;20024;-68
2022/10/16 20:11:28;;;;;;;21.90;7.53;;;23.90;69.70;;;;;;5089400;28;20024;-70
2022/10/16 20:13:58;;;;;;;14.85;6.50;;;23.90;69.60;;;;;;5085267;28;20021;-68
2022/10/16 20:16:27;;;;;;;16.00;6.97;;;23.90;69.40;;;;;;5088776;28;20032;-68
2022/10/16 20:18:53;;;;;;;17.85;7.93;;;23.80;69.20;;;;;;5089064;28;20116;-70
2022/10/16 20:21:23;;;;;;;29.20;9.45;;;23.80;69.20;;;;;;5086017;28;20024;-68
2022/10/16 20:23:50;;;;;;;28.00;11.00;;;23.80;69.60;;;;;;5089067;28;20532;-68
2022/10/16 20:26:18;;;;;;;23.63;9.25;;;23.70;70.40;;;;;;5084544;28;20044;-67
2022/10/16 20:28:45;;;;;;;26.50;7.40;;;23.70;71.50;;;;;;5091952;28;20039;-67
2022/10/16 20:31:21;;;;;;;15.98;7.18;;;23.60;72.20;;;;;;5090179;28;20117;-67
2022/10/16 20:33:49;;;;;;;16.88;6.53;;;23.60;72.80;;;;;;5091933;28;20012;-73
2022/10/16 20:36:16;;;;;;;12.80;7.03;;;23.60;73.10;;;;;;5092060;28;20015;-67
2022/10/16 20:38:44;;;;;;;16.25;7.35;;;23.50;73.50;;;;;;5089406;28;20493;-68
2022/10/16 20:41:11;;;;;;;17.05;6.45;;;23.50;73.80;;;;;;5090974;28;20597;-67
2022/10/16 20:43:44;;;;;;;18.77;6.93;;;23.50;74.20;;;;;;5088619;28;20399;-68
2022/10/16 20:46:13;;;;;;;14.80;7.38;;;23.50;74.50;;;;;;5091035;28;20036;-67
2022/10/16 20:48:43;;;;;;;18.67;7.28;;;23.50;74.80;;;;;;5093292;28;20036;-71
2022/10/16 20:51:31;;;;;;;16.98;7.38;;;23.50;75.10;;;;;;5089513;28;20066;-68
2022/10/16 20:54:07;;;;;;;17.30;7.05;;;23.40;75.20;;;;;;5091985;28;20055;-68
2022/10/16 20:56:36;;;;;;;19.27;8.13;;;23.40;75.90;;;;;;5104845;28;20055;-68
2022/10/16 20:59:03;;;;;;;16.55;8.13;;;23.40;76.60;;;;;;5092111;28;20855;-69
2022/10/16 21:01:30;;;;;;;21.85;7.05;;;23.40;77.20;;;;;;5094528;28;20023;-70
2022/10/16 21:04:02;;;;;;;24.33;8.13;;;23.40;78.00;;;;;;5092589;28;20059;-67
2022/10/16 21:06:30;;;;;;;28.38;9.18;;;23.30;78.70;;;;;;5092582;28;20119;-67
2022/10/16 21:09:02;;;;;;;27.83;8.98;;;23.30;79.30;;;;;;5090277;28;20085;-67
2022/10/16 21:11:30;;;;;;;25.27;9.77;;;23.30;79.50;;;;;;5093376;28;20426;-67
2022/10/16 21:14:00;;;;;;;22.00;10.90;;;23.30;79.70;;;;;;5092988;28;20062;-67
2022/10/16 21:16:27;;;;;;;26.90;8.90;;;23.30;79.80;;;;;;5093533;28;20367;-70